createdAt,value
2019-05-17T00:01:57.519Z,37.70
2019-05-17T00:04:27.032Z,38.50
2019-05-17T00:06:57.471Z,38.73
2019-05-17T00:09:27.736Z,37.35
2019-05-17T00:11:58.010Z,37.58
2019-05-17T00:14:36.537Z,37.67
2019-05-17T00:17:06.993Z,36.77
2019-05-17T00:19:37.303Z,36.58
2019-05-17T00:22:07.611Z,36.95
2019-05-17T00:24:37.919Z,37.03
2019-05-17T00:27:08.196Z,38.17
2019-05-17T00:29:38.538Z,37.33
2019-05-17T00:32:08.811Z,38.85
2019-05-17T00:34:39.155Z,37.15
2019-05-17T00:37:09.630Z,36.85
2019-05-17T00:39:39.991Z,37.30
2019-05-17T00:42:10.274Z,37.65
2019-05-17T00:44:41.036Z,39.03
2019-05-17T00:47:12.321Z,39.13
2019-05-17T00:49:42.704Z,40.08
2019-05-17T00:52:12.973Z,39.20
2019-05-17T00:54:44.334Z,36.63
2019-05-17T00:57:16.550Z,37.08
2019-05-17T00:59:47.533Z,36.08
2019-05-17T01:02:18.271Z,36.85
2019-05-17T01:04:50.134Z,35.80
2019-05-17T01:07:20.410Z,35.83
2019-05-17T01:09:50.763Z,35.58
2019-05-17T01:12:21.053Z,35.75
2019-05-17T01:15:09.549Z,34.85
2019-05-17T01:17:39.905Z,38.55
2019-05-17T01:20:10.873Z,38.25
2019-05-17T01:22:41.210Z,39.00
2019-05-17T01:25:11.959Z,35.92
2019-05-17T01:27:42.279Z,36.10
2019-05-17T01:30:12.739Z,37.80
2019-05-17T01:32:43.054Z,42.23
2019-05-17T01:35:16.797Z,42.08
2019-05-17T01:37:47.540Z,40.50
2019-05-17T01:40:18.152Z,37.23
2019-05-17T01:42:48.460Z,35.40
2019-05-17T01:45:18.746Z,37.40
2019-05-17T01:47:49.061Z,35.43
2019-05-17T01:50:19.344Z,36.48
2019-05-17T01:52:49.660Z,35.45
2019-05-17T01:55:19.882Z,38.00
2019-05-17T01:57:50.194Z,37.13
2019-05-17T02:00:20.682Z,39.38
2019-05-17T02:02:52.577Z,39.30
2019-05-17T02:05:23.946Z,39.30
2019-05-17T02:07:54.263Z,37.13
2019-05-17T02:10:27.031Z,37.85
2019-05-17T02:12:57.177Z,36.85
2019-05-17T02:15:28.539Z,37.40
2019-05-17T02:17:58.876Z,39.70
2019-05-17T02:20:29.238Z,45.20
2019-05-17T02:22:59.575Z,41.25
2019-05-17T02:25:29.917Z,37.38
2019-05-17T02:28:01.523Z,38.28
2019-05-17T02:30:33.755Z,37.93
2019-05-17T02:33:04.556Z,37.55
2019-05-17T02:35:35.152Z,35.75
2019-05-17T02:38:05.964Z,36.03
2019-05-17T02:40:36.356Z,36.13
2019-05-17T02:43:06.680Z,37.23
2019-05-17T02:45:36.953Z,36.68
2019-05-17T02:48:08.399Z,35.75
2019-05-17T02:50:38.649Z,34.80
2019-05-17T02:53:08.970Z,34.80
2019-05-17T02:55:39.261Z,39.27
2019-05-17T02:58:09.574Z,42.20
2019-05-17T03:00:39.834Z,45.75
2019-05-17T03:03:13.209Z,44.42
2019-05-17T03:05:43.100Z,39.38
2019-05-17T03:08:13.603Z,42.25
2019-05-17T03:10:43.873Z,41.35
2019-05-17T03:13:17.904Z,41.33
2019-05-17T03:15:46.062Z,39.45
2019-05-17T03:18:17.489Z,37.55
2019-05-17T03:20:47.823Z,40.43
2019-05-17T03:23:18.080Z,41.25
2019-05-17T03:25:48.376Z,38.88
2019-05-17T03:28:18.649Z,40.70
2019-05-17T03:30:55.599Z,44.98
2019-05-17T03:33:26.623Z,44.55
2019-05-17T03:35:56.378Z,41.53
2019-05-17T03:38:27.444Z,40.25
2019-05-17T03:41:11.854Z,41.45
2019-05-17T03:43:29.665Z,40.55
2019-05-17T03:46:02.868Z,41.68
2019-05-17T03:48:33.322Z,38.95
2019-05-17T03:51:04.024Z,38.53
2019-05-17T03:53:34.288Z,37.48
2019-05-17T03:56:04.915Z,37.75
2019-05-17T03:58:35.213Z,35.28
2019-05-17T04:01:05.528Z,36.33
2019-05-17T04:03:35.897Z,39.05
2019-05-17T04:06:06.321Z,38.20
2019-05-17T04:08:36.588Z,40.15
2019-05-17T04:11:20.374Z,41.42
2019-05-17T04:13:38.849Z,39.18
2019-05-17T04:16:09.634Z,39.25
2019-05-17T04:18:43.645Z,39.15
2019-05-17T04:21:13.076Z,40.33
2019-05-17T04:23:43.401Z,43.98
2019-05-17T04:26:14.757Z,42.23
2019-05-17T04:28:45.058Z,41.85
2019-05-17T04:31:15.424Z,42.78
2019-05-17T04:33:45.746Z,43.17
2019-05-17T04:36:16.274Z,43.17
2019-05-17T04:38:46.583Z,45.33
2019-05-17T04:41:35.990Z,44.53
2019-05-17T04:43:52.915Z,44.58
2019-05-17T04:46:23.562Z,47.62
2019-05-17T04:48:53.963Z,46.35
2019-05-17T04:51:24.416Z,46.48
2019-05-17T04:53:54.744Z,45.17
2019-05-17T04:56:25.109Z,49.23
2019-05-17T04:58:55.405Z,48.35
2019-05-17T05:01:25.743Z,49.93
2019-05-17T05:03:56.036Z,50.03
2019-05-17T05:06:29.065Z,48.38
2019-05-17T05:09:02.334Z,50.95
2019-05-17T05:11:32.994Z,50.75
2019-05-17T05:14:03.377Z,51.33
2019-05-17T05:16:34.554Z,53.33
2019-05-17T05:19:04.985Z,52.43
2019-05-17T05:21:35.258Z,48.45
2019-05-17T05:24:05.563Z,48.28
2019-05-17T05:26:35.851Z,50.12
2019-05-17T05:29:06.157Z,50.15
2019-05-17T05:31:36.424Z,50.70
2019-05-17T05:34:06.731Z,50.65
2019-05-17T05:36:37.015Z,49.38
2019-05-17T05:39:08.046Z,49.38
2019-05-17T05:41:38.305Z,49.83
2019-05-17T05:44:08.623Z,49.77
2019-05-17T05:46:38.947Z,47.08
2019-05-17T05:49:09.305Z,46.65
2019-05-17T05:51:46.152Z,46.95
2019-05-17T05:54:16.442Z,48.50
2019-05-17T05:56:46.725Z,47.67
2019-05-17T05:59:17.052Z,46.77
2019-05-17T06:01:47.354Z,45.48
2019-05-17T06:04:18.781Z,46.20
2019-05-17T06:06:49.116Z,45.58
2019-05-17T06:09:19.461Z,47.73
2019-05-17T06:11:51.821Z,43.58
2019-05-17T06:14:21.744Z,44.15
2019-05-17T06:16:53.106Z,42.75
2019-05-17T06:19:24.449Z,43.48
2019-05-17T06:21:54.731Z,41.63
2019-05-17T06:24:25.065Z,40.05
2019-05-17T06:26:55.333Z,41.98
2019-05-17T06:29:25.683Z,40.10
2019-05-17T06:31:57.705Z,39.05
2019-05-17T06:34:28.049Z,41.30
2019-05-17T06:36:58.328Z,47.03
2019-05-17T06:39:28.864Z,38.20
2019-05-17T06:41:59.164Z,37.08
2019-05-17T06:44:29.474Z,35.80
2019-05-17T06:47:02.425Z,36.08
2019-05-17T06:49:31.846Z,37.05
2019-05-17T06:52:02.618Z,36.15
2019-05-17T06:54:33.252Z,38.33
2019-05-17T06:57:03.643Z,39.45
2019-05-17T06:59:33.972Z,38.90
2019-05-17T07:02:05.284Z,38.42
2019-05-17T07:04:35.922Z,39.27
2019-05-17T07:07:24.083Z,40.35
2019-05-17T07:09:55.417Z,41.65
2019-05-17T07:12:26.530Z,40.63
2019-05-17T07:14:58.420Z,40.73
2019-05-17T07:17:30.391Z,41.25
2019-05-17T07:20:00.978Z,42.20
2019-05-17T07:22:31.252Z,41.13
2019-05-17T07:25:01.630Z,42.10
2019-05-17T07:27:41.508Z,40.88
2019-05-17T07:30:06.181Z,39.40
2019-05-17T07:32:36.465Z,38.63
2019-05-17T07:35:10.414Z,38.92
2019-05-17T07:37:40.410Z,36.35
2019-05-17T07:40:12.242Z,35.85
2019-05-17T07:42:42.573Z,36.95
2019-05-17T07:45:13.148Z,35.92
2019-05-17T07:47:43.498Z,35.28
2019-05-17T07:50:13.996Z,35.58
2019-05-17T07:52:44.350Z,35.58
2019-05-17T07:55:14.620Z,34.78
2019-05-17T07:57:45.251Z,33.33
2019-05-17T08:00:20.123Z,31.48
2019-05-17T08:02:50.628Z,30.25
2019-05-17T08:05:21.532Z,29.82
2019-05-17T08:07:52.047Z,28.25
2019-05-17T08:10:22.312Z,28.40
2019-05-17T08:12:52.637Z,28.52
2019-05-17T08:15:23.861Z,24.12
2019-05-17T08:17:54.174Z,22.90
2019-05-17T08:20:24.471Z,23.92
2019-05-17T08:22:54.805Z,21.50
2019-05-17T08:25:30.616Z,21.90
2019-05-17T08:27:59.362Z,22.62
2019-05-17T08:30:30.239Z,23.42
2019-05-17T08:33:01.015Z,24.67
2019-05-17T08:35:31.452Z,25.05
2019-05-17T08:38:01.764Z,23.67
2019-05-17T08:40:32.341Z,24.55
2019-05-17T08:43:02.672Z,24.80
2019-05-17T08:45:32.963Z,23.87
2019-05-17T08:48:03.292Z,23.27
2019-05-17T08:50:33.672Z,23.55
2019-05-17T08:53:04.011Z,21.37
2019-05-17T08:55:34.287Z,21.27
2019-05-17T08:58:04.602Z,21.37
2019-05-17T09:00:35.105Z,20.60
2019-05-17T09:03:05.570Z,21.37
2019-05-17T09:05:35.853Z,20.30
2019-05-17T09:08:06.272Z,20.62
2019-05-17T09:10:36.824Z,21.30
2019-05-17T09:13:07.098Z,21.23
2019-05-17T09:15:39.955Z,20.97
2019-05-17T09:18:10.448Z,21.40
2019-05-17T09:20:41.825Z,21.87
2019-05-17T09:23:12.163Z,20.37
2019-05-17T09:25:42.347Z,21.60
2019-05-17T09:28:12.897Z,24.27
2019-05-17T09:30:43.169Z,24.45
2019-05-17T09:33:13.489Z,22.20
2019-05-17T09:35:44.877Z,22.05
2019-05-17T09:38:15.243Z,21.45
2019-05-17T09:40:45.540Z,21.12
2019-05-17T09:43:17.428Z,20.27
2019-05-17T09:45:50.428Z,21.82
2019-05-17T09:48:19.780Z,21.40
2019-05-17T09:50:50.614Z,20.72
2019-05-17T09:53:22.269Z,20.15
2019-05-17T09:55:52.540Z,20.80
2019-05-17T09:58:22.876Z,19.57
2019-05-17T10:00:53.166Z,20.35
2019-05-17T10:03:24.189Z,20.25
2019-05-17T10:05:54.588Z,22.02
2019-05-17T10:08:24.928Z,22.15
2019-05-17T10:11:05.943Z,21.73
2019-05-17T10:13:27.163Z,21.82
2019-05-17T10:15:57.482Z,22.45
2019-05-17T10:18:29.571Z,21.52
2019-05-17T10:20:59.955Z,21.02
2019-05-17T10:23:30.477Z,21.07
2019-05-17T10:26:00.799Z,22.10
2019-05-17T10:28:31.180Z,20.97
2019-05-17T10:31:02.398Z,21.12
2019-05-17T10:33:32.997Z,21.25
2019-05-17T10:36:03.360Z,21.33
2019-05-17T10:38:34.698Z,21.90
2019-05-17T10:41:06.019Z,22.62
2019-05-17T10:43:36.387Z,22.42
2019-05-17T10:46:06.712Z,21.07
2019-05-17T10:48:36.986Z,21.68
2019-05-17T10:51:26.629Z,21.20
2019-05-17T10:53:56.901Z,20.82
2019-05-17T10:56:27.229Z,22.80
2019-05-17T10:58:59.967Z,22.80
2019-05-17T11:01:30.529Z,21.87
2019-05-17T11:04:01.180Z,23.42
2019-05-17T11:06:31.538Z,24.27
2019-05-17T11:09:01.865Z,25.72
2019-05-17T11:11:33.698Z,23.10
2019-05-17T11:14:08.613Z,21.35
2019-05-17T11:16:38.952Z,21.17
2019-05-17T11:19:09.250Z,21.12
2019-05-17T11:21:48.809Z,23.18
2019-05-17T11:24:19.085Z,22.80
2019-05-17T11:26:49.491Z,22.45
2019-05-17T11:29:19.793Z,21.60
2019-05-17T11:31:50.131Z,24.07
2019-05-17T11:34:20.427Z,24.67
2019-05-17T11:36:51.760Z,22.77
2019-05-17T11:39:22.046Z,23.20
2019-05-17T11:41:52.292Z,23.05
2019-05-17T11:44:23.699Z,24.15
2019-05-17T11:46:54.007Z,24.15
2019-05-17T11:49:24.344Z,22.60
2019-05-17T11:51:54.775Z,25.02
2019-05-17T11:54:26.404Z,24.47
2019-05-17T11:56:56.695Z,24.37
2019-05-17T11:59:26.977Z,23.83
2019-05-17T12:01:57.322Z,23.92
2019-05-17T12:04:27.605Z,25.00
2019-05-17T12:06:58.711Z,24.95
2019-05-17T12:09:36.837Z,25.65
2019-05-17T12:12:00.957Z,24.55
2019-05-17T12:14:37.740Z,24.90
2019-05-17T12:17:08.071Z,25.40
2019-05-17T12:19:38.341Z,24.92
2019-05-17T12:22:11.212Z,24.65
2019-05-17T12:24:41.538Z,24.30
2019-05-17T12:27:11.842Z,24.52
2019-05-17T12:29:42.166Z,26.15
2019-05-17T12:32:17.257Z,22.77
2019-05-17T12:34:47.688Z,23.75
2019-05-17T12:37:18.091Z,24.10
2019-05-17T12:39:48.377Z,24.65
2019-05-17T12:42:20.937Z,24.65
2019-05-17T12:44:51.174Z,24.37
2019-05-17T12:47:21.540Z,23.65
2019-05-17T12:49:51.773Z,23.80
2019-05-17T12:52:23.637Z,23.40
2019-05-17T12:54:53.848Z,24.55
2019-05-17T12:57:26.708Z,22.00
2019-05-17T12:59:57.994Z,22.62
2019-05-17T13:02:28.317Z,23.35
2019-05-17T13:04:58.607Z,37.83
2019-05-17T13:07:28.928Z,25.70
2019-05-17T13:09:59.209Z,24.92
2019-05-17T13:12:32.269Z,32.45
2019-05-17T13:15:02.533Z,28.15
2019-05-17T13:17:32.921Z,22.00
2019-05-17T13:20:06.269Z,20.62
2019-05-17T13:22:36.652Z,23.20
2019-05-17T13:25:08.769Z,30.75
2019-05-17T13:27:39.536Z,39.92
2019-05-17T13:30:10.742Z,31.25
2019-05-17T13:32:41.141Z,33.75
2019-05-17T13:35:12.944Z,36.00
2019-05-17T13:37:43.293Z,29.27
2019-05-17T13:40:14.065Z,22.60
2019-05-17T13:42:44.426Z,21.15
2019-05-17T13:45:16.217Z,22.87
2019-05-17T13:47:46.496Z,23.60
2019-05-17T13:50:17.133Z,23.02
2019-05-17T13:52:50.214Z,22.10
2019-05-17T13:55:20.522Z,22.37
2019-05-17T13:57:50.790Z,22.25
2019-05-17T14:00:21.218Z,20.72
2019-05-17T14:02:51.573Z,23.05
2019-05-17T14:05:23.337Z,22.98
2019-05-17T14:07:53.628Z,20.30
2019-05-17T14:10:27.795Z,21.85
2019-05-17T14:12:55.958Z,23.62
2019-05-17T14:15:26.281Z,23.75
2019-05-17T14:17:57.489Z,24.75
2019-05-17T14:20:27.823Z,22.37
2019-05-17T14:22:58.136Z,21.80
2019-05-17T14:25:28.478Z,22.62
2019-05-17T14:27:58.800Z,23.25
2019-05-17T14:30:29.086Z,24.02
2019-05-17T14:32:59.388Z,23.83
2019-05-17T14:35:29.701Z,23.02
2019-05-17T14:37:59.932Z,23.95
2019-05-17T14:41:03.994Z,25.23
2019-05-17T14:43:02.347Z,22.52
2019-05-17T14:45:32.709Z,24.07
2019-05-17T14:48:03.015Z,22.82
2019-05-17T14:50:33.365Z,22.85
2019-05-17T14:53:03.634Z,23.38
2019-05-17T14:55:34.123Z,22.98
2019-05-17T14:58:04.657Z,24.50
2019-05-17T15:00:35.008Z,23.10
2019-05-17T15:03:07.544Z,24.25
2019-05-17T15:05:37.309Z,22.48
2019-05-17T15:08:07.659Z,20.77
2019-05-17T15:10:38.013Z,21.80
2019-05-17T15:13:08.379Z,23.50
2019-05-17T15:15:38.776Z,23.05
2019-05-17T15:18:09.929Z,23.12
2019-05-17T15:20:40.565Z,23.65
2019-05-17T15:23:10.884Z,21.33
2019-05-17T15:25:41.247Z,21.93
2019-05-17T15:28:11.588Z,21.25
2019-05-17T15:30:41.955Z,22.48
2019-05-17T15:33:12.998Z,22.13
2019-05-17T15:35:43.351Z,23.05
2019-05-17T15:38:13.684Z,22.20
2019-05-17T15:40:44.036Z,20.88
2019-05-17T15:43:14.391Z,21.73
2019-05-17T15:45:44.663Z,22.48
2019-05-17T15:48:15.970Z,22.70
2019-05-17T15:50:46.254Z,21.35
2019-05-17T15:53:16.593Z,22.37
2019-05-17T15:55:46.868Z,21.90
2019-05-17T15:58:17.185Z,22.15
2019-05-17T16:00:47.466Z,22.50
2019-05-17T16:03:17.886Z,22.05
2019-05-17T16:05:48.186Z,22.22
2019-05-17T16:08:18.565Z,21.10
2019-05-17T16:10:48.852Z,21.25
2019-05-17T16:13:19.204Z,21.27
2019-05-17T16:15:49.521Z,20.88
2019-05-17T16:18:19.928Z,21.37
2019-05-17T16:20:50.222Z,20.45
2019-05-17T16:23:20.638Z,21.73
2019-05-17T16:25:51.026Z,21.40
2019-05-17T16:28:23.220Z,19.77
2019-05-17T16:30:58.237Z,19.60
2019-05-17T16:36:00.853Z,18.42
2019-05-17T16:38:31.182Z,18.70
2019-05-17T16:41:01.459Z,20.23
2019-05-17T16:43:31.936Z,17.45
2019-05-17T16:46:02.206Z,18.95
2019-05-17T16:48:32.585Z,19.25
2019-05-17T16:51:02.974Z,17.62
2019-05-17T16:53:33.410Z,17.82
2019-05-17T16:56:03.777Z,18.00
2019-05-17T16:58:34.465Z,18.32
2019-05-17T17:01:05.354Z,19.17
2019-05-17T17:03:44.152Z,17.85
2019-05-17T17:06:10.340Z,18.32
2019-05-17T17:08:41.860Z,18.80
2019-05-17T17:11:13.262Z,17.90
2019-05-17T17:13:43.635Z,20.85
2019-05-17T17:16:13.917Z,22.15
2019-05-17T17:18:44.237Z,21.33
2019-05-17T17:21:14.573Z,21.93
2019-05-17T17:23:44.800Z,21.65
2019-05-17T17:26:15.118Z,21.17
2019-05-17T17:28:45.394Z,21.27
2019-05-17T17:31:16.916Z,21.27
2019-05-17T17:33:48.100Z,20.15
2019-05-17T17:36:19.558Z,20.40
2019-05-17T17:38:51.044Z,20.72
2019-05-17T17:41:37.942Z,22.02
2019-05-17T17:44:08.229Z,21.15
2019-05-17T17:46:38.677Z,20.40
2019-05-17T17:49:08.972Z,20.55
2019-05-17T17:51:39.682Z,21.37
2019-05-17T17:54:09.972Z,21.40
2019-05-17T17:56:40.351Z,21.93
2019-05-17T17:59:10.836Z,22.48
2019-05-17T18:01:45.304Z,23.40
2019-05-17T18:04:15.594Z,23.67
2019-05-17T18:06:46.070Z,25.48
2019-05-17T18:09:16.401Z,24.47
2019-05-17T18:11:46.782Z,25.50
2019-05-17T18:14:17.122Z,27.25
2019-05-17T18:16:47.553Z,27.85
2019-05-17T18:19:19.651Z,28.77
2019-05-17T18:21:55.332Z,29.27
2019-05-17T18:24:25.824Z,30.57
2019-05-17T18:26:56.065Z,29.82
2019-05-17T18:29:26.290Z,30.43
2019-05-17T18:31:56.646Z,31.33
2019-05-17T18:34:28.112Z,31.52
2019-05-17T18:36:58.451Z,31.20
2019-05-17T18:39:30.612Z,32.67
2019-05-17T18:42:01.019Z,31.75
2019-05-17T18:44:32.811Z,31.65
2019-05-17T18:47:04.609Z,31.48
2019-05-17T18:49:34.936Z,31.48
2019-05-17T18:52:05.517Z,31.52
2019-05-17T18:54:35.796Z,33.92
2019-05-17T18:57:06.235Z,34.55
2019-05-17T18:59:36.597Z,33.65
2019-05-17T19:02:07.038Z,35.20
2019-05-17T19:04:37.447Z,40.33
2019-05-17T19:07:09.268Z,39.95
2019-05-17T19:09:39.639Z,40.40
2019-05-17T19:12:09.948Z,38.30
2019-05-17T19:14:42.840Z,36.98
2019-05-17T19:17:12.386Z,36.55
2019-05-17T19:19:42.649Z,38.02
2019-05-17T19:22:12.962Z,35.65
2019-05-17T19:24:46.321Z,34.73
2019-05-17T19:27:16.637Z,35.75
2019-05-17T19:29:46.914Z,35.58
2019-05-17T19:32:17.237Z,34.13
2019-05-17T19:34:47.536Z,34.90
2019-05-17T19:37:17.815Z,37.65
2019-05-17T19:39:48.033Z,34.78
2019-05-17T19:42:18.773Z,36.25
2019-05-17T19:44:58.555Z,34.85
2019-05-17T19:47:21.333Z,35.83
2019-05-17T19:49:51.726Z,37.10
2019-05-17T19:52:22.155Z,37.58
2019-05-17T19:54:52.412Z,36.93
2019-05-17T19:57:23.934Z,38.67
2019-05-17T19:59:54.208Z,38.20
2019-05-17T20:02:24.701Z,38.30
2019-05-17T20:04:54.963Z,40.15
2019-05-17T20:07:25.233Z,37.53
2019-05-17T20:09:55.538Z,39.05
2019-05-17T20:12:27.573Z,37.73
2019-05-17T20:14:57.935Z,36.30
2019-05-17T20:17:28.225Z,38.85
2019-05-17T20:19:58.652Z,36.60
2019-05-17T20:22:28.966Z,35.68
2019-05-17T20:24:59.248Z,35.00
2019-05-17T20:27:29.556Z,34.95
2019-05-17T20:29:59.836Z,33.63
2019-05-17T20:32:30.132Z,32.83
2019-05-17T20:35:00.751Z,33.33
2019-05-17T20:37:31.346Z,31.75
2019-05-17T20:40:01.684Z,32.85
2019-05-17T20:42:32.693Z,31.52
2019-05-17T20:45:12.327Z,31.40
2019-05-17T20:47:42.644Z,31.17
2019-05-17T20:50:13.147Z,31.17
2019-05-17T20:52:44.575Z,31.95
2019-05-17T20:55:16.292Z,32.63
2019-05-17T20:57:47.615Z,30.92
2019-05-17T21:00:18.802Z,33.45
2019-05-17T21:02:49.199Z,33.05
2019-05-17T21:05:19.698Z,34.83
2019-05-17T21:07:50.003Z,34.90
2019-05-17T21:10:21.402Z,34.95
2019-05-17T21:12:52.734Z,35.13
2019-05-17T21:15:23.086Z,34.40
2019-05-17T21:17:53.412Z,35.65
2019-05-17T21:20:23.663Z,36.58
2019-05-17T21:22:54.031Z,35.80
2019-05-17T21:25:24.320Z,35.92
2019-05-17T21:27:54.596Z,37.05
2019-05-17T21:30:24.911Z,35.30
2019-05-17T21:32:55.293Z,36.63
2019-05-17T21:35:27.125Z,34.90
2019-05-17T21:37:57.527Z,35.30
2019-05-17T21:40:27.822Z,36.50
2019-05-17T21:42:58.183Z,34.78
2019-05-17T21:45:28.455Z,34.75
2019-05-17T21:47:58.747Z,34.53
2019-05-17T21:50:29.054Z,35.48
2019-05-17T21:52:59.332Z,33.73
2019-05-17T21:55:31.164Z,34.25
2019-05-17T21:58:04.586Z,35.05
2019-05-17T22:00:51.539Z,33.85
2019-05-17T22:03:22.172Z,33.80
2019-05-17T22:05:52.478Z,31.60
2019-05-17T22:08:22.792Z,31.97
2019-05-17T22:10:53.125Z,32.80
2019-05-17T22:13:23.391Z,29.23
2019-05-17T22:15:55.896Z,30.52
2019-05-17T22:18:26.217Z,29.90
2019-05-17T22:20:56.674Z,30.48
2019-05-17T22:23:26.941Z,30.23
2019-05-17T22:25:57.338Z,29.45
2019-05-17T22:28:27.566Z,29.95
2019-05-17T22:30:57.964Z,30.05
2019-05-17T22:33:28.719Z,29.02
2019-05-17T22:35:59.109Z,27.90
2019-05-17T22:38:29.389Z,27.17
2019-05-17T22:41:10.992Z,26.85
2019-05-17T22:43:41.267Z,26.35
2019-05-17T22:46:11.659Z,24.72
2019-05-17T22:48:43.414Z,23.20
2019-05-17T22:51:13.723Z,24.52
2019-05-17T22:53:44.000Z,23.27
2019-05-17T22:56:14.328Z,23.02
2019-05-17T22:58:44.537Z,21.25
2019-05-17T23:01:14.884Z,21.97
2019-05-17T23:03:45.481Z,21.48
2019-05-17T23:06:15.813Z,21.45
2019-05-17T23:08:46.125Z,21.70
2019-05-17T23:11:16.571Z,21.55
2019-05-17T23:13:46.848Z,22.52
2019-05-17T23:16:17.161Z,23.02
2019-05-17T23:19:13.249Z,23.47
2019-05-17T23:21:43.613Z,23.60
2019-05-17T23:24:13.923Z,22.10
2019-05-17T23:26:44.536Z,23.22
2019-05-17T23:29:14.737Z,24.65
2019-05-17T23:31:45.059Z,23.20
2019-05-17T23:34:15.331Z,24.30
2019-05-17T23:36:45.639Z,32.20
2019-05-17T23:39:15.838Z,27.27
2019-05-17T23:41:46.191Z,25.48
2019-05-17T23:44:16.507Z,25.45
2019-05-17T23:46:46.808Z,26.25
2019-05-17T23:49:17.174Z,27.58
2019-05-17T23:51:47.456Z,27.05
2019-05-17T23:54:17.761Z,26.75
2019-05-17T23:56:48.035Z,29.18
2019-05-17T23:59:18.337Z,27.90
